Time;durP1;ratioP1;P1;durP2;ratioP2;P2;SDS_P1;SDS_P2;PMS_P1;PMS_P2;Temp;Humidity;BMP_temperature;BMP_pressure;BME280_temperature;BME280_humidity;BME280_pressure;Samples;Min_cycle;Max_cycle;Signal;HPM_P1;HPM_P2
2022/03/29 00:00:51;;;;;;;13.48;5.05;;;;;;;;;;4998757;28;20470;-68
2022/03/29 00:03:16;;;;;;;16.60;4.68;;;14.70;52.60;;;;;;4998581;28;20023;-68
2022/03/29 00:05:43;;;;;;;8.63;4.68;;;;;;;;;;4999228;28;20687;-67
2022/03/29 00:08:09;;;;;;;13.65;4.50;;;;;;;;;;4998200;28;20027;-68
2022/03/29 00:10:35;;;;;;;8.77;5.35;;;;;;;;;;4997689;28;20531;-68
2022/03/29 00:13:01;;;;;;;6.93;4.13;;;;;;;;;;4997607;28;20577;-68
2022/03/29 00:15:28;;;;;;;15.32;5.20;;;;;;;;;;4997743;28;20065;-67
2022/03/29 00:17:54;;;;;;;7.63;5.38;;;;;;;;;;5000121;28;20111;-67
2022/03/29 00:20:21;;;;;;;8.75;4.63;;;;;;;;;;4996763;28;20042;-68
2022/03/29 00:22:47;;;;;;;18.80;4.40;;;;;;;;;;4998264;28;20394;-68
2022/03/29 00:25:14;;;;;;;7.22;4.80;;;;;;;;;;4998315;28;20037;-67
2022/03/29 00:27:40;;;;;;;7.90;5.43;;;;;;;;;;4997804;28;20034;-68
2022/03/29 00:30:07;;;;;;;8.13;4.05;;;13.70;32.90;;;;;;4998041;28;21000;-68
2022/03/29 00:32:34;;;;;;;11.93;5.35;;;;;;;;;;4998603;28;20488;-67
2022/03/29 00:35:00;;;;;;;9.85;5.05;;;;;;;;;;4998320;28;20030;-67
2022/03/29 00:37:26;;;;;;;11.23;5.18;;;;;;;;;;4999527;28;20104;-67
2022/03/29 00:39:52;;;;;;;6.80;3.60;;;13.60;41.80;;;;;;4998148;28;20128;-68
2022/03/29 00:42:18;;;;;;;10.00;5.32;;;;;;;;;;4998293;28;20061;-69
2022/03/29 00:44:44;;;;;;;9.77;4.22;;;;;;;;;;5000744;28;20035;-69
2022/03/29 00:47:10;;;;;;;8.35;4.78;;;13.60;43.00;;;;;;4996951;28;20526;-66
2022/03/29 00:49:36;;;;;;;11.55;4.95;;;;;;;;;;4996943;28;20026;-67
2022/03/29 00:52:04;;;;;;;8.55;4.75;;;13.30;38.60;;;;;;4985727;28;20568;-68
2022/03/29 00:54:32;;;;;;;8.77;4.93;;;13.10;37.60;;;;;;4996678;28;20039;-68
2022/03/29 00:56:59;;;;;;;10.95;5.70;;;;;;;;;;4998454;28;20033;-67
2022/03/29 00:59:26;;;;;;;9.53;5.57;;;;;;;;;;4996805;28;20035;-68
2022/03/29 01:01:52;;;;;;;3.40;3.10;;;;;;;;;;4984237;28;20529;-67
2022/03/29 01:04:18;;;;;;;15.88;5.75;;;;;;;;;;4996878;28;20029;-68
2022/03/29 01:06:44;;;;;;;9.50;4.55;;;;;;;;;;4997244;28;20286;-68
2022/03/29 01:09:11;;;;;;;12.20;4.25;;;;;;;;;;4997011;28;20030;-68
2022/03/29 01:11:40;;;;;;;13.82;4.43;;;12.50;37.90;;;;;;4998087;28;20026;-67
2022/03/29 01:14:06;;;;;;;16.33;5.70;;;12.60;58.80;;;;;;4995363;28;20038;-67
2022/03/29 01:19:18;;;;;;;7.75;4.40;;;;;;;;;;4996646;28;20080;-67
2022/03/29 01:21:57;;;;;;;11.77;4.93;;;12.70;40.40;;;;;;4996724;28;20026;-68
2022/03/29 01:24:25;;;;;;;10.38;5.07;;;;;;;;;;4996084;28;22860;-70
2022/03/29 01:26:52;;;;;;;8.63;4.22;;;12.50;38.90;;;;;;4998796;28;20514;-69
2022/03/29 01:29:19;;;;;;;11.13;5.30;;;;;;;;;;4996196;28;20026;-67
2022/03/29 01:31:45;;;;;;;10.23;4.10;;;;;;;;;;4996221;28;20112;-67
2022/03/29 01:34:11;;;;;;;6.53;4.78;;;;;;;;;;4996487;28;20040;-68
2022/03/29 01:36:37;;;;;;;8.20;3.92;;;;;;;;;;4996328;28;20050;-67
2022/03/29 01:39:03;;;;;;;8.70;5.30;;;;;;;;;;4997635;28;20503;-68
2022/03/29 01:41:30;;;;;;;8.18;5.55;;;;;;;;;;4997224;28;20033;-67
2022/03/29 01:43:57;;;;;;;11.30;4.00;;;12.20;64.40;;;;;;4981946;28;20025;-67
2022/03/29 01:46:22;;;;;;;7.05;4.50;;;;;;;;;;4997510;28;20045;-67
2022/03/29 01:48:49;;;;;;;6.78;3.42;;;;;;;;;;4996761;28;20025;-68
2022/03/29 01:51:15;;;;;;;13.02;3.30;;;;;;;;;;4997406;28;20750;-67
2022/03/29 01:53:41;;;;;;;16.25;3.90;;;;;;;;;;4998449;28;20538;-68
2022/03/29 01:56:08;;;;;;;9.48;3.55;;;;;;;;;;4997311;28;20034;-67
2022/03/29 01:58:34;;;;;;;6.55;3.28;;;;;;;;;;4997466;28;20092;-68
2022/03/29 02:01:00;;;;;;;6.93;4.43;;;;;;;;;;4996967;28;20762;-68
2022/03/29 02:03:26;;;;;;;9.05;4.38;;;11.90;49.40;;;;;;4996446;28;20473;-68
2022/03/29 02:05:53;;;;;;;7.03;3.35;;;;;;;;;;5000625;28;20061;-68
2022/03/29 02:08:19;;;;;;;7.13;3.38;;;;;;;;;;4996586;28;20054;-67
2022/03/29 02:10:45;;;;;;;10.68;4.53;;;;;;;;;;4995162;28;20407;-68
2022/03/29 02:13:12;;;;;;;11.90;3.55;;;;;;;;;;4995980;28;20026;-67
2022/03/29 02:15:41;;;;;;;7.80;4.05;;;;;;;;;;4997005;28;20550;-67
2022/03/29 02:18:07;;;;;;;6.45;3.83;;;;;;;;;;4997643;28;20065;-66
2022/03/29 02:20:33;;;;;;;9.32;4.13;;;;;;;;;;4997429;28;20026;-67
2022/03/29 02:23:03;;;;;;;6.00;3.92;;;;;;;;;;4996142;28;20030;-68
2022/03/29 02:25:30;;;;;;;6.90;3.33;;;;;;;;;;4997052;28;20629;-67
2022/03/29 02:27:56;;;;;;;8.73;4.13;;;;;;;;;;4996727;28;20034;-67
2022/03/29 02:30:22;;;;;;;8.40;4.38;;;;;;;;;;4995915;28;20038;-67
2022/03/29 02:32:48;;;;;;;7.60;3.72;;;;;;;;;;4997727;28;20026;-68
2022/03/29 02:35:14;;;;;;;8.52;4.00;;;;;;;;;;4996371;28;20657;-68
2022/03/29 02:37:40;;;;;;;6.47;3.38;;;11.50;58.60;;;;;;4996763;28;20041;-68
2022/03/29 02:40:07;;;;;;;6.15;4.35;;;11.40;64.50;;;;;;4997006;28;20054;-67
2022/03/29 02:42:39;;;;;;;6.50;3.63;;;;;;;;;;4997138;28;20088;-68
2022/03/29 02:45:07;;;;;;;8.63;4.57;;;;;;;;;;4997504;28;20097;-67
2022/03/29 02:47:33;;;;;;;7.70;4.13;;;11.40;62.40;;;;;;4998563;28;20045;-67
2022/03/29 02:49:59;;;;;;;9.02;4.55;;;;;;;;;;4996099;28;20050;-68
2022/03/29 02:52:25;;;;;;;9.65;3.60;;;;;;;;;;4996049;28;20081;-67
2022/03/29 02:54:51;;;;;;;12.88;3.55;;;;;;;;;;4993572;28;20076;-67
2022/03/29 02:57:17;;;;;;;24.75;4.90;;;;;;;;;;4978327;28;20034;-68
2022/03/29 02:59:45;;;;;;;7.18;3.90;;;12.90;57.40;;;;;;4997936;28;20049;-68
2022/03/29 03:02:11;;;;;;;11.55;5.20;;;;;;;;;;4995102;28;20045;-68
2022/03/29 03:04:37;;;;;;;9.07;4.70;;;;;;;;;;4995436;28;20108;-67
2022/03/29 03:07:03;;;;;;;11.73;4.85;;;;;;;;;;4984256;28;20034;-68
2022/03/29 03:09:29;;;;;;;15.80;5.35;;;;;;;;;;4995818;28;20132;-68
2022/03/29 03:11:56;;;;;;;7.28;4.50;;;;;;;;;;5000832;28;20030;-68
2022/03/29 03:14:22;;;;;;;16.83;6.63;;;;;;;;;;4998455;28;20022;-69
2022/03/29 03:16:48;;;;;;;9.80;5.68;;;;;;;;;;4998791;28;20032;-68
2022/03/29 03:19:14;;;;;;;7.28;3.90;;;;;;;;;;4999040;28;20042;-67
2022/03/29 03:21:40;;;;;;;10.40;4.82;;;;;;;;;;4982298;28;20121;-68
2022/03/29 03:24:06;;;;;;;9.27;5.60;;;13.80;41.20;;;;;;5001581;28;20026;-67
2022/03/29 03:26:32;;;;;;;8.82;5.45;;;13.90;55.00;;;;;;5000037;28;20582;-68
2022/03/29 03:28:58;;;;;;;10.65;4.78;;;;;;;;;;4999011;28;20684;-67
2022/03/29 03:31:24;;;;;;;10.10;5.25;;;;;;;;;;5000152;28;20052;-67
2022/03/29 03:33:50;;;;;;;18.20;6.47;;;13.60;46.70;;;;;;4986365;28;20725;-68
2022/03/29 03:36:16;;;;;;;6.70;4.72;;;13.60;56.20;;;;;;4998203;28;20033;-67
2022/03/29 03:38:41;;;;;;;11.48;5.25;;;13.50;43.60;;;;;;4999714;28;20084;-67
2022/03/29 03:41:07;;;;;;;20.33;6.28;;;;;;;;;;4998101;28;20022;-68
2022/03/29 03:43:33;;;;;;;11.75;6.13;;;;;;;;;;4998355;28;20038;-67
2022/03/29 03:46:00;;;;;;;13.10;5.22;;;;;;;;;;4998040;28;20494;-68
2022/03/29 03:48:25;;;;;;;9.60;5.35;;;13.50;52.00;;;;;;4998731;28;20483;-67
2022/03/29 03:50:51;;;;;;;9.10;5.18;;;;;;;;;;4999836;28;20042;-67
2022/03/29 03:53:17;;;;;;;14.82;4.95;;;;;;;;;;4998497;28;20046;-67
2022/03/29 03:55:43;;;;;;;10.93;5.18;;;;;;;;;;4998322;28;20026;-68
2022/03/29 03:58:09;;;;;;;11.23;5.65;;;;;;;;;;4998258;28;20041;-68
2022/03/29 04:00:35;;;;;;;13.88;5.82;;;;;;;;;;4998194;28;20149;-68
2022/03/29 04:03:01;;;;;;;9.68;5.35;;;;;;;;;;4998758;28;20089;-68
2022/03/29 04:05:27;;;;;;;13.65;5.97;;;;;;;;;;4999786;28;20457;-69
2022/03/29 04:07:53;;;;;;;10.65;5.28;;;;;;;;;;5000232;28;20089;-68
2022/03/29 04:10:19;;;;;;;9.75;4.82;;;;;;;;;;4998488;28;20076;-68
2022/03/29 04:12:45;;;;;;;13.00;5.85;;;;;;;;;;5000303;28;20530;-68
2022/03/29 04:15:12;;;;;;;15.55;4.95;;;;;;;;;;4997986;28;20122;-68
2022/03/29 04:17:38;;;;;;;13.40;6.18;;;;;;;;;;4998291;28;20029;-68
2022/03/29 04:20:04;;;;;;;16.50;5.88;;;;;;;;;;4998346;28;20046;-68
2022/03/29 04:22:30;;;;;;;10.80;4.88;;;;;;;;;;4998577;28;20511;-67
2022/03/29 04:24:56;;;;;;;10.88;5.30;;;;;;;;;;4998551;28;20039;-68
2022/03/29 04:27:22;;;;;;;12.75;4.88;;;13.10;58.20;;;;;;4998371;28;20040;-66
2022/03/29 04:29:48;;;;;;;9.05;5.65;;;;;;;;;;4998944;28;20034;-67
2022/03/29 04:32:14;;;;;;;10.48;5.25;;;;;;;;;;4997330;28;20034;-67
2022/03/29 04:34:40;;;;;;;12.05;6.20;;;;;;;;;;4998045;28;20037;-68
2022/03/29 04:37:06;;;;;;;10.27;4.60;;;;;;;;;;4998243;28;20033;-68
2022/03/29 04:39:31;;;;;;;10.65;4.80;;;12.90;58.60;;;;;;4997937;28;20031;-67
2022/03/29 04:41:58;;;;;;;18.88;5.95;;;;;;;;;;4999355;28;20661;-67
2022/03/29 04:44:25;;;;;;;11.60;4.80;;;;;;;;;;4998117;28;20040;-68
2022/03/29 04:46:50;;;;;;;10.53;5.23;;;13.10;58.70;;;;;;4997240;28;20038;-67
2022/03/29 04:49:16;;;;;;;10.30;4.75;;;13.10;58.60;;;;;;4994764;28;20080;-68
2022/03/29 04:51:41;;;;;;;12.57;6.22;;;13.10;51.90;;;;;;4996656;28;20079;-67
2022/03/29 04:54:07;;;;;;;13.35;4.85;;;;;;;;;;4997967;28;20054;-68
2022/03/29 04:56:33;;;;;;;15.20;6.13;;;;;;;;;;4997855;28;20487;-68
2022/03/29 04:58:59;;;;;;;10.32;4.97;;;;;;;;;;4996748;28;20030;-68
2022/03/29 05:01:25;;;;;;;10.52;5.07;;;;;;;;;;4997077;28;20438;-67
2022/03/29 05:03:51;;;;;;;18.02;5.45;;;;;;;;;;4997639;28;20149;-67
2022/03/29 05:06:17;;;;;;;17.10;5.55;;;;;;;;;;4998048;28;20045;-68
2022/03/29 05:08:43;;;;;;;12.13;7.50;;;;;;;;;;4998436;28;20034;-68
2022/03/29 05:11:09;;;;;;;11.48;4.10;;;;;;;;;;4996803;28;20033;-67
2022/03/29 05:13:35;;;;;;;9.75;3.97;;;;;;;;;;4995703;28;20026;-67
2022/03/29 05:16:01;;;;;;;10.38;4.80;;;;;;;;;;4996910;28;20479;-69
2022/03/29 05:18:28;;;;;;;18.90;6.18;;;;;;;;;;4996244;28;20037;-68
2022/03/29 05:20:53;;;;;;;8.75;4.95;;;;;;;;;;4996291;28;20038;-68
2022/03/29 05:23:20;;;;;;;12.23;4.65;;;;;;;;;;4991073;28;20025;-69
2022/03/29 05:25:46;;;;;;;11.65;5.10;;;;;;;;;;4994512;28;20038;-68
2022/03/29 05:28:12;;;;;;;8.00;5.13;;;;;;;;;;4994380;28;20026;-68
2022/03/29 05:30:38;;;;;;;12.20;8.57;;;;;;;;;;4989740;28;20072;-69
2022/03/29 05:33:05;;;;;;;13.45;5.80;;;;;;;;;;4991313;28;20037;-69
2022/03/29 05:35:32;;;;;;;18.05;5.15;;;;;;;;;;4991882;28;20030;-69
2022/03/29 05:37:59;;;;;;;15.18;5.72;;;;;;;;;;4991740;28;20034;-68
2022/03/29 05:40:25;;;;;;;18.25;6.10;;;;;;;;;;4993484;28;20034;-69
2022/03/29 05:42:52;;;;;;;12.55;5.55;;;;;;;;;;4993177;28;20037;-69
2022/03/29 05:45:18;;;;;;;14.70;6.82;;;;;;;;;;4993462;28;20030;-70
2022/03/29 05:50:29;;;;;;;10.90;4.85;;;;;;;;;;4991940;28;20084;-73
2022/03/29 05:52:56;;;;;;;16.42;6.43;;;;;;;;;;4992897;28;20058;-69
2022/03/29 05:55:22;;;;;;;13.40;5.97;;;;;;;;;;4993725;28;20572;-70
2022/03/29 05:57:49;;;;;;;13.52;6.10;;;;;;;;;;4995560;28;20880;-69
2022/03/29 06:00:16;;;;;;;22.10;5.40;;;;;;;;;;4994469;28;20048;-69
2022/03/29 06:02:42;;;;;;;21.38;5.55;;;;;;;;;;4996039;28;20042;-69
2022/03/29 06:05:09;;;;;;;14.13;4.95;;;;;;;;;;4995135;28;20030;-70
2022/03/29 06:07:36;;;;;;;13.68;4.75;;;;;;;;;;4995324;28;20056;-70
2022/03/29 06:10:06;;;;;;;18.98;6.53;;;;;;;;;;4995046;28;20014;-69
2022/03/29 06:12:31;;;;;;;12.77;5.05;;;12.90;47.00;;;;;;4995395;28;20542;-69
2022/03/29 06:14:57;;;;;;;13.07;4.68;;;;;;;;;;4996403;28;20050;-69
2022/03/29 06:17:23;;;;;;;12.52;4.82;;;;;;;;;;4994244;28;20491;-70
2022/03/29 06:19:49;;;;;;;11.65;6.38;;;;;;;;;;4994136;28;20122;-72
2022/03/29 06:22:15;;;;;;;11.80;5.43;;;;;;;;;;4995548;28;20018;-72
2022/03/29 06:24:41;;;;;;;14.18;4.65;;;;;;;;;;4990888;28;20026;-73
2022/03/29 06:27:07;;;;;;;8.65;5.85;;;;;;;;;;4996037;28;20403;-69
2022/03/29 06:29:34;;;;;;;10.70;5.47;;;;;;;;;;4994897;28;20057;-69
2022/03/29 06:32:00;;;;;;;8.82;3.78;;;;;;;;;;4990840;28;20034;-72
2022/03/29 06:34:29;;;;;;;10.98;5.13;;;;;;;;;;4975667;28;20486;-72
2022/03/29 06:36:55;;;;;;;16.80;6.00;;;;;;;;;;4993587;28;20038;-72
2022/03/29 06:39:21;;;;;;;17.70;4.45;;;;;;;;;;4992664;28;20092;-71
2022/03/29 06:41:47;;;;;;;8.55;6.07;;;;;;;;;;4995181;28;20462;-71
2022/03/29 06:44:13;;;;;;;6.82;4.88;;;;;;;;;;4991653;28;20044;-73
2022/03/29 06:46:42;;;;;;;10.23;3.70;;;;;;;;;;4994380;28;20140;-73
2022/03/29 06:49:08;;;;;;;12.02;5.50;;;;;;;;;;4995379;28;20028;-72
2022/03/29 06:51:35;;;;;;;19.77;5.45;;;;;;;;;;4980239;28;20399;-72
2022/03/29 06:54:02;;;;;;;10.37;4.83;;;;;;;;;;4997192;28;20050;-71
2022/03/29 06:56:28;;;;;;;19.57;5.73;;;;;;;;;;4992094;28;20794;-71
2022/03/29 06:58:55;;;;;;;16.77;5.90;;;;;;;;;;4995414;28;20040;-71
2022/03/29 07:01:21;;;;;;;12.10;6.23;;;;;;;;;;4996719;28;20080;-71
2022/03/29 07:03:48;;;;;;;19.42;4.97;;;;;;;;;;4994105;28;20052;-72
2022/03/29 07:06:14;;;;;;;11.38;4.80;;;;;;;;;;4996921;28;20054;-72
2022/03/29 07:11:16;;;;;;;6.78;4.38;;;;;;;;;;4999182;28;20029;-75
2022/03/29 07:11:26;;;;;;;14.23;4.78;;;;;;;;;;4997457;28;20060;-72
2022/03/29 07:13:53;;;;;;;18.27;5.75;;;;;;;;;;4994844;28;20491;-73
2022/03/29 07:16:19;;;;;;;20.15;7.22;;;;;;;;;;4995022;28;20057;-73
2022/03/29 07:18:45;;;;;;;14.05;4.85;;;;;;;;;;4996644;28;20060;-72
2022/03/29 07:21:11;;;;;;;11.55;4.68;;;;;;;;;;4995384;28;20360;-72
2022/03/29 07:23:38;;;;;;;10.55;4.68;;;;;;;;;;4995283;28;20022;-71
2022/03/29 07:26:04;;;;;;;14.77;4.97;;;;;;;;;;4995370;28;20048;-72
2022/03/29 07:28:30;;;;;;;8.65;4.40;;;;;;;;;;4993571;28;20076;-74
2022/03/29 07:30:57;;;;;;;12.63;4.47;;;;;;;;;;4995386;28;20069;-70
2022/03/29 07:33:23;;;;;;;9.70;5.38;;;;;;;;;;4996526;28;20034;-71
2022/03/29 07:35:49;;;;;;;11.70;5.63;;;;;;;;;;4995563;28;20112;-70
2022/03/29 07:38:15;;;;;;;9.45;4.65;;;;;;;;;;4992995;28;20081;-71
2022/03/29 07:40:43;;;;;;;13.13;4.47;;;16.40;36.00;;;;;;4994773;28;20025;-69
2022/03/29 07:43:10;;;;;;;11.70;4.63;;;;;;;;;;4995672;28;20030;-69
2022/03/29 07:45:36;;;;;;;9.65;3.97;;;;;;;;;;4997055;28;20452;-68
2022/03/29 07:48:03;;;;;;;11.13;6.05;;;;;;;;;;4999073;28;20034;-69
2022/03/29 07:50:30;;;;;;;13.70;4.30;;;;;;;;;;4997127;28;20035;-69
2022/03/29 07:52:59;;;;;;;14.63;5.50;;;;;;;;;;4992342;28;20050;-69
2022/03/29 07:55:25;;;;;;;10.20;4.43;;;;;;;;;;4994607;28;20093;-69
2022/03/29 07:57:51;;;;;;;15.55;6.63;;;;;;;;;;4995638;28;20033;-68
2022/03/29 08:00:33;;;;;;;10.02;4.00;;;;;;;;;;4977440;28;20026;-68
2022/03/29 08:03:00;;;;;;;9.82;5.85;;;;;;;;;;4995463;28;20480;-70
2022/03/29 08:05:26;;;;;;;11.52;4.78;;;15.90;59.50;;;;;;4994966;28;20042;-68
2022/03/29 08:07:52;;;;;;;20.33;5.45;;;;;;;;;;4995377;28;20030;-68
2022/03/29 08:10:18;;;;;;;11.43;5.28;;;;;;;;;;4983645;28;20026;-69
2022/03/29 08:12:45;;;;;;;10.50;4.53;;;;;;;;;;4996583;28;20491;-69
2022/03/29 08:15:11;;;;;;;9.02;4.95;;;;;;;;;;4996085;28;20030;-71
2022/03/29 08:17:38;;;;;;;15.15;4.22;;;;;;;;;;4997899;28;20029;-72
2022/03/29 08:20:05;;;;;;;19.77;4.90;;;;;;;;;;4994009;28;20038;-71
2022/03/29 08:22:32;;;;;;;11.30;4.90;;;;;;;;;;4994772;28;20560;-72
2022/03/29 08:24:58;;;;;;;24.13;4.70;;;;;;;;;;4997259;28;20039;-70
2022/03/29 08:27:24;;;;;;;9.68;4.85;;;;;;;;;;4996487;28;20092;-71
2022/03/29 08:29:50;;;;;;;9.82;4.10;;;;;;;;;;4995890;28;20052;-71
2022/03/29 08:32:16;;;;;;;14.48;5.10;;;;;;;;;;4999186;28;20483;-71
2022/03/29 08:34:42;;;;;;;21.90;4.32;;;;;;;;;;4996983;28;20498;-70
2022/03/29 08:37:08;;;;;;;15.23;4.57;;;;;;;;;;4996577;28;20023;-71
2022/03/29 08:39:35;;;;;;;15.93;6.03;;;;;;;;;;4996999;28;20145;-71
2022/03/29 08:42:11;;;;;;;9.07;4.78;;;;;;;;;;4997591;28;20408;-71
2022/03/29 08:44:38;;;;;;;11.43;5.00;;;;;;;;;;4995303;28;20041;-71
2022/03/29 08:47:07;;;;;;;9.32;4.55;;;;;;;;;;4995024;28;20552;-72
2022/03/29 08:49:34;;;;;;;7.63;3.15;;;;;;;;;;4994016;28;20033;-71
2022/03/29 08:52:01;;;;;;;16.57;4.70;;;;;;;;;;4994881;28;20041;-73
2022/03/29 08:54:28;;;;;;;9.65;5.00;;;;;;;;;;4995329;28;20381;-71
2022/03/29 08:56:54;;;;;;;11.02;3.67;;;;;;;;;;4996133;28;20038;-71
2022/03/29 08:59:21;;;;;;;17.13;3.95;;;;;;;;;;4994048;28;20092;-73
2022/03/29 09:01:47;;;;;;;5.80;3.33;;;;;;;;;;4993597;28;20388;-71
2022/03/29 09:04:13;;;;;;;9.57;3.63;;;;;;;;;;4994715;28;20407;-71
2022/03/29 09:06:55;;;;;;;10.02;3.80;;;;;;;;;;4994830;28;20038;-71
2022/03/29 09:09:23;;;;;;;10.00;4.10;;;;;;;;;;4994382;28;20041;-71
2022/03/29 09:11:50;;;;;;;11.73;4.05;;;;;;;;;;4994630;28;20149;-71
2022/03/29 09:14:17;;;;;;;11.18;3.72;;;;;;;;;;4993599;28;20034;-70
2022/03/29 09:16:43;;;;;;;9.00;3.90;;;;;;;;;;4996308;28;20073;-72
2022/03/29 09:19:09;;;;;;;8.07;2.88;;;;;;;;;;4994684;28;20034;-72
2022/03/29 09:21:45;;;;;;;25.57;4.23;;;;;;;;;;4995199;28;20022;-72
2022/03/29 09:24:16;;;;;;;13.75;3.58;;;25.00;25.20;;;;;;4996302;28;20076;-70
2022/03/29 09:26:54;;;;;;;12.35;4.53;;;24.70;25.50;;;;;;4997603;28;20376;-71
2022/03/29 09:29:21;;;;;;;13.18;4.20;;;;;;;;;;4992882;28;20030;-73
2022/03/29 09:31:48;;;;;;;;;;;;;;;;;;4993778;28;20033;-72
2022/03/29 09:34:15;;;;;;;7.30;2.83;;;;;;;;;;4994601;28;19913;-72
2022/03/29 09:36:49;;;;;;;19.58;3.53;;;;;;;;;;4995242;28;20809;-72
2022/03/29 09:39:41;;;;;;;16.17;3.88;;;24.90;25.80;;;;;;4994163;28;20049;-72
2022/03/29 09:42:11;;;;;;;13.68;4.03;;;;;;;;;;4995285;28;20438;-72
2022/03/29 09:44:58;;;;;;;13.98;1.92;;;;;;;;;;4992851;28;20030;-75
2022/03/29 09:47:27;;;;;;;18.77;3.05;;;;;;;;;;4992613;28;20048;-75
2022/03/29 09:50:02;;;;;;;14.00;2.80;;;;;;;;;;4991446;28;20144;-75
2022/03/29 09:52:28;;;;;;;17.63;4.03;;;;;;;;;;4992712;28;20037;-70
2022/03/29 09:55:05;;;;;;;12.35;3.88;;;;;;;;;;4994611;28;20037;-70
2022/03/29 09:57:38;;;;;;;6.45;2.22;;;;;;;;;;4994551;28;20082;-70
2022/03/29 10:00:07;;;;;;;9.25;3.22;;;;;;;;;;4997184;28;20042;-70
2022/03/29 10:02:36;;;;;;;5.82;3.05;;;;;;;;;;4995163;28;20084;-70
2022/03/29 10:05:03;;;;;;;19.88;2.88;;;;;;;;;;4993259;28;20037;-70
2022/03/29 10:07:30;;;;;;;8.57;3.47;;;;;;;;;;4992036;28;20096;-70
2022/03/29 10:09:56;;;;;;;14.75;3.05;;;;;;;;;;4993890;28;20026;-69
2022/03/29 10:12:23;;;;;;;8.13;3.00;;;;;;;;;;4993476;28;20034;-70
2022/03/29 10:14:50;;;;;;;17.05;3.13;;;;;;;;;;4994184;28;20042;-70
2022/03/29 10:17:16;;;;;;;14.85;3.75;;;;;;;;;;4990206;28;20033;-70
2022/03/29 10:19:47;;;;;;;22.05;5.30;;;;;;;;;;4995269;28;20038;-70
2022/03/29 10:22:14;;;;;;;12.00;4.47;;;;;;;;;;4996700;28;20121;-70
2022/03/29 10:24:39;;;;;;;8.20;2.75;;;;;;;;;;4997651;28;20025;-69
2022/03/29 10:27:06;;;;;;;17.60;3.28;;;21.60;26.80;;;;;;4999382;28;20042;-70
2022/03/29 10:29:32;;;;;;;11.00;2.30;;;21.90;49.20;;;;;;4996009;28;20029;-69
2022/03/29 10:32:02;;;;;;;10.82;2.42;;;;;;;;;;4996187;28;20562;-69
2022/03/29 10:34:37;;;;;;;11.85;4.25;;;;;;;;;;4997378;28;20121;-70
2022/03/29 10:37:09;;;;;;;6.88;2.28;;;;;;;;;;4998023;28;20076;-70
2022/03/29 10:39:54;;;;;;;18.33;2.83;;;;;;;;;;4998696;28;20118;-69
2022/03/29 10:42:29;;;;;;;14.75;2.60;;;;;;;;;;4998088;28;20447;-69
2022/03/29 10:45:13;;;;;;;27.52;3.10;;;;;;;;;;4999564;28;20029;-69
2022/03/29 10:47:40;;;;;;;9.88;3.80;;;;;;;;;;4997799;28;20045;-69
2022/03/29 10:50:07;;;;;;;7.63;3.17;;;;;;;;;;4995722;28;20037;-70
2022/03/29 10:52:33;;;;;;;;;;;;;;;;;;4995104;28;20085;-70
2022/03/29 10:55:18;;;;;;;12.10;3.33;;;;;;;;;;4996573;28;22938;-70
2022/03/29 10:58:16;;;;;;;7.68;2.38;;;26.90;24.60;;;;;;4996592;28;20026;-70
2022/03/29 11:00:46;;;;;;;17.45;3.65;;;26.50;24.40;;;;;;4998039;28;20038;-69
2022/03/29 11:03:16;;;;;;;8.63;2.35;;;;;;;;;;4997243;28;20077;-70
2022/03/29 11:06:01;;;;;;;22.42;4.63;;;;;;;;;;4998008;28;20031;-70
2022/03/29 11:08:29;;;;;;;9.57;3.15;;;;;;;;;;4996178;28;20080;-69
2022/03/29 11:10:56;;;;;;;16.25;3.65;;;;;;;;;;4995465;28;20044;-69
2022/03/29 11:13:23;;;;;;;9.45;4.13;;;;;;;;;;4996659;28;20019;-69
2022/03/29 11:15:49;;;;;;;13.00;3.35;;;;;;;;;;4997434;28;20034;-69
2022/03/29 11:18:30;;;;;;;16.58;4.13;;;;;;;;;;4996901;28;20048;-72
2022/03/29 11:21:02;;;;;;;11.38;3.50;;;;;;;;;;4997213;28;20026;-72
2022/03/29 11:23:38;;;;;;;13.55;3.03;;;;;;;;;;4998032;28;20045;-71
2022/03/29 11:26:10;;;;;;;11.07;3.00;;;;;;;;;;4997075;28;20046;-73
2022/03/29 11:28:37;;;;;;;13.07;2.85;;;22.90;27.60;;;;;;4996497;28;20068;-72
2022/03/29 11:31:03;;;;;;;16.92;3.00;;;;;;;;;;4996335;28;20164;-72
2022/03/29 11:33:33;;;;;;;8.60;2.72;;;;;;;;;;4996310;28;20038;-73
2022/03/29 11:36:00;;;;;;;10.55;3.85;;;;;;;;;;4996850;28;20027;-71
2022/03/29 11:38:27;;;;;;;28.52;3.03;;;;;;;;;;4995487;28;20037;-72
2022/03/29 11:40:53;;;;;;;12.33;3.40;;;;;;;;;;4993805;28;20037;-71
2022/03/29 11:43:22;;;;;;;9.02;3.15;;;;;;;;;;4996226;28;20281;-72
2022/03/29 11:45:49;;;;;;;5.88;2.10;;;;;;;;;;4998156;28;20410;-71
2022/03/29 11:48:21;;;;;;;28.92;5.00;;;21.90;28.10;;;;;;4997640;28;20038;-71
2022/03/29 11:50:51;;;;;;;12.40;4.28;;;;;;;;;;4997359;28;20655;-72
2022/03/29 11:53:23;;;;;;;21.33;3.00;;;;;;;;;;4996174;28;20069;-71
2022/03/29 11:56:16;;;;;;;15.88;3.75;;;;;;;;;;4995379;28;20030;-72
2022/03/29 11:58:43;;;;;;;12.00;2.72;;;;;;;;;;4991928;28;20041;-72
2022/03/29 12:01:09;;;;;;;;;;;;;;;;;;4996896;28;20031;-69
2022/03/29 12:03:38;;;;;;;14.90;3.92;;;;;;;;;;4997819;28;20740;-73
2022/03/29 12:06:12;;;;;;;22.35;3.78;;;;;;;;;;4998382;28;20919;-74
2022/03/29 12:08:56;;;;;;;13.45;2.72;;;;;;;;;;4998747;28;20534;-69
2022/03/29 12:11:27;;;;;;;9.35;4.07;;;;;;;;;;4995075;28;20080;-70
2022/03/29 12:14:13;;;;;;;11.45;3.78;;;;;;;;;;4997287;28;20033;-68
2022/03/29 12:16:40;;;;;;;23.85;5.80;;;;;;;;;;4996496;28;20037;-69
2022/03/29 12:19:06;;;;;;;;;;;;;;;;;;4995471;28;20084;-69
2022/03/29 12:21:32;;;;;;;21.10;5.13;;;;;;;;;;4996799;28;19918;-68
2022/03/29 12:24:00;;;;;;;23.98;4.53;;;;;;;;;;4996792;28;20902;-69
2022/03/29 12:26:27;;;;;;;15.27;3.40;;;21.50;50.10;;;;;;4992599;28;20057;-68
2022/03/29 12:28:53;;;;;;;20.70;4.07;;;;;;;;;;4994631;28;20396;-68
2022/03/29 12:31:20;;;;;;;16.38;3.92;;;;;;;;;;4994721;28;20101;-69
2022/03/29 12:33:46;;;;;;;14.85;3.00;;;;;;;;;;4995151;28;20034;-69
2022/03/29 12:36:15;;;;;;;10.88;2.60;;;21.10;29.90;;;;;;4995801;28;20062;-69
2022/03/29 12:38:46;;;;;;;28.13;4.03;;;;;;;;;;4996147;28;20598;-69
2022/03/29 12:41:13;;;;;;;5.75;2.60;;;;;;;;;;4994157;28;20041;-68
2022/03/29 12:43:39;;;;;;;12.43;3.13;;;;;;;;;;4994117;28;20076;-69
2022/03/29 12:46:09;;;;;;;23.15;5.18;;;;;;;;;;4997104;28;20045;-68
2022/03/29 12:48:35;;;;;;;16.25;3.38;;;;;;;;;;4996429;28;20027;-68
2022/03/29 12:51:05;;;;;;;11.70;3.20;;;;;;;;;;4996382;28;20101;-69
2022/03/29 12:53:31;;;;;;;17.60;3.22;;;;;;;;;;4992115;28;20058;-68
2022/03/29 12:55:58;;;;;;;8.63;3.13;;;;;;;;;;4994534;28;20022;-69
2022/03/29 12:58:35;;;;;;;11.13;2.40;;;22.40;28.10;;;;;;4996501;28;20022;-69
2022/03/29 13:01:01;;;;;;;19.58;3.58;;;;;;;;;;4993809;28;20030;-68
2022/03/29 13:03:27;;;;;;;10.55;3.97;;;;;;;;;;4994044;28;20105;-68
2022/03/29 13:05:53;;;;;;;12.63;2.20;;;;;;;;;;4995382;28;20081;-69
2022/03/29 13:08:22;;;;;;;13.93;3.17;;;22.20;28.80;;;;;;4992621;28;20042;-69
2022/03/29 13:10:52;;;;;;;18.92;3.33;;;;;;;;;;4993550;28;20049;-70
2022/03/29 13:13:26;;;;;;;20.48;2.70;;;;;;;;;;4992662;28;20041;-69
2022/03/29 13:15:54;;;;;;;14.88;3.50;;;;;;;;;;4995398;28;20380;-68
2022/03/29 13:18:23;;;;;;;18.42;3.22;;;;;;;;;;4993982;28;20038;-70
2022/03/29 13:20:50;;;;;;;27.80;4.95;;;;;;;;;;4995806;28;20109;-71
2022/03/29 13:23:29;;;;;;;21.08;5.13;;;;;;;;;;4994554;28;20038;-70
2022/03/29 13:25:55;;;;;;;22.13;2.80;;;;;;;;;;4995717;28;20057;-71
2022/03/29 13:28:21;;;;;;;18.75;3.28;;;;;;;;;;4993326;28;20093;-71
2022/03/29 13:30:47;;;;;;;21.55;4.22;;;;;;;;;;4994424;28;20058;-69
2022/03/29 13:33:13;;;;;;;21.20;3.88;;;;;;;;;;4993985;28;20554;-70
2022/03/29 13:35:46;;;;;;;13.30;4.13;;;;;;;;;;4992800;28;20038;-72
2022/03/29 13:38:12;;;;;;;23.02;3.88;;;21.60;27.60;;;;;;4992852;28;20450;-71
2022/03/29 13:40:38;;;;;;;14.90;2.58;;;;;;;;;;4992552;28;20026;-70
2022/03/29 13:43:04;;;;;;;36.03;5.13;;;;;;;;;;4994775;28;20088;-69
2022/03/29 13:45:31;;;;;;;17.35;2.78;;;;;;;;;;4994187;28;20084;-70
2022/03/29 13:47:58;;;;;;;10.43;3.20;;;;;;;;;;4995763;28;20037;-70
2022/03/29 13:50:24;;;;;;;12.38;3.53;;;22.40;28.00;;;;;;4992748;28;20030;-70
2022/03/29 13:52:50;;;;;;;17.33;4.22;;;;;;;;;;4992979;28;20046;-70
2022/03/29 13:55:16;;;;;;;18.67;3.33;;;;;;;;;;4990445;28;20465;-71
2022/03/29 13:57:42;;;;;;;42.10;4.38;;;;;;;;;;4994400;28;20026;-74
2022/03/29 14:00:08;;;;;;;22.42;3.65;;;;;;;;;;4994257;28;20503;-71
2022/03/29 14:02:35;;;;;;;14.43;3.90;;;;;;;;;;4994013;28;20066;-70
2022/03/29 14:05:01;;;;;;;12.20;2.38;;;;;;;;;;4992402;28;20277;-70
2022/03/29 14:07:27;;;;;;;18.88;2.70;;;21.90;28.20;;;;;;4990942;28;20034;-70
2022/03/29 14:09:53;;;;;;;13.50;3.22;;;;;;;;;;4993394;28;20022;-70
2022/03/29 14:12:19;;;;;;;7.95;2.60;;;;;;;;;;4993589;28;20519;-69
2022/03/29 14:14:45;;;;;;;15.45;3.80;;;;;;;;;;4994597;28;20031;-69
2022/03/29 14:17:11;;;;;;;19.60;5.82;;;;;;;;;;4990758;28;20043;-70
2022/03/29 14:19:37;;;;;;;15.35;3.42;;;;;;;;;;4995571;28;20026;-70
2022/03/29 14:22:03;;;;;;;12.35;2.45;;;;;;;;;;4993648;28;20092;-71
2022/03/29 14:24:29;;;;;;;25.80;5.80;;;;;;;;;;4992482;28;20030;-70
2022/03/29 14:26:56;;;;;;;17.88;3.55;;;;;;;;;;4993785;28;20038;-70